Vremea acum in Constanta - Romania

Vrei sa afli care e starea vremii acum in Constanta - Romania? Dorim sa iti furnizam starea vremii pentru Constanta - Romania. Starea vremii Constanta - Romania pentru astazi.

Vremea acum in Constanta

Temperatura: 26.2 °C

Este: Senin
Se simte ca: 26 °C
Innorat: 3 %
Precipitatii: %
Presiune atmosferica: 1013 hPa
Umiditate: 37%
Vizibilitate: 10 km
Vantul bate din SSW cu 10.4 km/h

Evolutia vremii in Constanta pe ore

Ora: 08:00
Temperatura: °C
Sansa de precipitatii: %
Ora Descriere Temp Se simte Precipitatii Umiditate Vant
00:00Senin17.1°17.1°0%59%W 4.3 KM/H
01:00Senin16.9°16.9°0%61%WSW 4.7 KM/H
02:00Senin16.6°16.6°0%63%W 5 KM/H
03:00Senin16.4°16.4°0%64%WSW 5.8 KM/H
04:00Senin16.3°16.3°0%64%WSW 7.6 KM/H
05:00Senin16°16°0%62%WNW 2.2 KM/H
06:00Senin16°16°0%62%W 3.2 KM/H
07:00Senin17°17°0%59%W 5.4 KM/H
08:00Senin18.4°18.4°0%54%W 6.5 KM/H
09:00Senin19.7°19.7°0%48%W 6.8 KM/H
10:00Senin20.8°20.8°0%43%WSW 6.8 KM/H
11:00Partial innorat22°24°0%39%SW 7.6 KM/H
12:00Senin23.3°24.3°0%37%SSW 7.9 KM/H
13:00Senin23.9°24.5°0%36%SSW 9 KM/H
14:00Senin26.2°26°0%37%SSW 10.4 KM/H
15:00Senin25.8°25.8°0%37%S 12.6 KM/H
16:00Senin27.1°26.8°0%38%SSW 11.5 KM/H
17:00Senin26.5°26.5°0%41%SSW 10.8 KM/H
18:00Senin25.1°25.7°0%46%SSW 11.2 KM/H
19:00Senin23.8°25.1°0%50%SSW 14.8 KM/H
20:00Senin21°21°0%54%SSW 19.4 KM/H
21:00Senin20.6°20.6°0%59%SSW 20.9 KM/H
22:00Senin20.4°20.4°0%63%SSW 21.6 KM/H
23:00Senin20.5°20.5°0%65%SSW 19.8 KM/H




tutorials